createdAt,value
2023-01-23T00:01:41.052Z,32.28
2023-01-23T00:04:12.677Z,35.47
2023-01-23T00:09:09.659Z,32.55
2023-01-23T00:11:37.643Z,31.00
2023-01-23T00:14:06.041Z,33.05
2023-01-23T00:16:34.498Z,35.20
2023-01-23T00:19:02.692Z,32.00
2023-01-23T00:21:31.294Z,30.63
2023-01-23T00:24:01.858Z,32.20
2023-01-23T00:26:33.169Z,30.88
2023-01-23T00:29:02.169Z,33.22
2023-01-23T00:31:35.867Z,33.20
2023-01-23T00:34:08.321Z,29.65
2023-01-23T00:36:39.948Z,29.13
2023-01-23T00:41:46.964Z,27.35
2023-01-23T00:44:16.538Z,25.27
2023-01-23T00:46:44.675Z,32.80
2023-01-23T00:49:13.029Z,25.45
2023-01-23T00:51:40.969Z,25.17
2023-01-23T00:54:08.977Z,25.08
2023-01-23T00:56:37.212Z,24.75
2023-01-23T00:59:05.381Z,22.65
2023-01-23T01:01:33.957Z,25.63
2023-01-23T01:04:02.495Z,24.55
2023-01-23T01:06:31.367Z,25.63
2023-01-23T01:09:00.490Z,22.50
2023-01-23T01:11:32.782Z,26.60
2023-01-23T01:14:01.729Z,25.05
2023-01-23T01:16:30.265Z,23.80
2023-01-23T01:18:59.640Z,19.45
2023-01-23T01:21:28.250Z,25.50
2023-01-23T01:23:56.452Z,21.80
2023-01-23T01:26:27.299Z,20.40
2023-01-23T01:28:55.889Z,19.63
2023-01-23T01:31:26.567Z,20.92
2023-01-23T01:33:55.769Z,20.27
2023-01-23T01:36:24.858Z,19.98
2023-01-23T01:38:52.711Z,23.15
2023-01-23T01:41:20.711Z,18.17
2023-01-23T01:43:49.059Z,18.30
2023-01-23T01:46:26.831Z,16.67
2023-01-23T01:49:30.993Z,17.13
2023-01-23T01:52:10.479Z,21.95
2023-01-23T01:54:54.875Z,18.60
2023-01-23T01:57:31.427Z,17.63
2023-01-23T02:00:11.329Z,18.95
2023-01-23T02:03:12.887Z,17.90
2023-01-23T02:05:45.519Z,17.60
2023-01-23T02:08:46.969Z,15.88
2023-01-23T02:11:17.086Z,20.85
2023-01-23T02:13:46.119Z,17.33
2023-01-23T02:16:23.895Z,20.58
2023-01-23T02:18:59.055Z,17.60
2023-01-23T02:21:27.726Z,19.83
2023-01-23T02:24:48.471Z,15.90
2023-01-23T02:27:18.060Z,17.73
2023-01-23T02:29:48.430Z,16.02
2023-01-23T02:32:19.841Z,17.38
2023-01-23T02:34:49.168Z,14.32
2023-01-23T02:37:17.746Z,16.08
2023-01-23T02:39:45.873Z,18.15
2023-01-23T02:42:14.164Z,16.40
2023-01-23T02:44:47.422Z,19.33
2023-01-23T02:49:46.886Z,17.02
2023-01-23T02:52:15.539Z,15.23
2023-01-23T02:54:43.643Z,16.23
2023-01-23T02:57:11.485Z,18.08
2023-01-23T03:00:03.052Z,18.48
2023-01-23T03:02:32.867Z,16.67
2023-01-23T03:05:00.852Z,18.02
2023-01-23T03:07:29.496Z,17.45
2023-01-23T03:09:57.533Z,15.63
2023-01-23T03:12:25.851Z,17.77
2023-01-23T03:14:58.956Z,16.95
2023-01-23T03:17:28.933Z,16.58
2023-01-23T03:19:57.884Z,15.52
2023-01-23T03:22:26.882Z,15.55
2023-01-23T03:24:57.900Z,15.25
2023-01-23T03:27:25.985Z,15.55
2023-01-23T03:30:16.201Z,17.08
2023-01-23T03:32:45.917Z,14.15
2023-01-23T03:35:20.644Z,14.95
2023-01-23T03:42:05.818Z,14.05
2023-01-23T03:44:33.871Z,15.05
2023-01-23T03:47:01.868Z,14.75
2023-01-23T03:49:30.554Z,15.95
2023-01-23T03:52:00.393Z,15.60
2023-01-23T03:54:29.806Z,17.10
2023-01-23T03:56:57.987Z,19.00
2023-01-23T03:59:44.727Z,18.35
2023-01-23T04:02:13.527Z,16.73
2023-01-23T04:04:41.587Z,17.17
2023-01-23T04:07:10.664Z,15.88
2023-01-23T04:09:40.911Z,16.13
2023-01-23T04:12:09.327Z,18.60
2023-01-23T04:14:41.314Z,16.25
2023-01-23T04:17:11.256Z,15.70
2023-01-23T04:19:39.134Z,14.98
2023-01-23T04:22:07.803Z,15.60
2023-01-23T04:24:42.087Z,14.30
2023-01-23T04:27:10.203Z,17.92
2023-01-23T04:29:38.637Z,14.27
2023-01-23T04:37:01.254Z,15.80
2023-01-23T04:39:29.524Z,15.45
2023-01-23T04:41:57.671Z,16.27
2023-01-23T04:44:39.445Z,18.50
2023-01-23T04:47:25.802Z,14.95
2023-01-23T04:49:54.031Z,15.55
2023-01-23T04:52:21.998Z,13.48
2023-01-23T04:54:58.266Z,15.68
2023-01-23T04:57:26.627Z,17.80
2023-01-23T05:00:12.321Z,14.15
2023-01-23T05:02:40.396Z,19.63
2023-01-23T05:05:10.058Z,18.13
2023-01-23T05:07:39.619Z,14.93
2023-01-23T05:10:12.952Z,16.15
2023-01-23T05:12:41.647Z,16.65
2023-01-23T05:15:11.423Z,14.55
2023-01-23T05:17:42.273Z,18.77
2023-01-23T05:20:12.170Z,16.05
2023-01-23T05:22:52.719Z,17.15
2023-01-23T05:25:28.148Z,17.33
2023-01-23T05:27:57.936Z,23.80
2023-01-23T05:30:26.836Z,20.50
2023-01-23T05:33:04.757Z,17.80
2023-01-23T05:35:32.910Z,20.95
2023-01-23T05:38:01.555Z,18.52
2023-01-23T05:40:29.688Z,22.60
2023-01-23T05:43:15.981Z,20.95
2023-01-23T05:46:03.707Z,24.23
2023-01-23T05:48:40.647Z,26.13
2023-01-23T05:51:12.301Z,19.52
2023-01-23T05:53:42.846Z,24.55
2023-01-23T05:56:12.596Z,22.40
2023-01-23T05:58:56.222Z,24.05
2023-01-23T06:01:43.290Z,21.83
2023-01-23T06:04:30.095Z,21.83
2023-01-23T06:07:15.632Z,24.25
2023-01-23T06:09:43.950Z,24.38
2023-01-23T06:12:12.888Z,22.70
2023-01-23T06:14:40.776Z,21.15
2023-01-23T06:22:36.454Z,23.65
2023-01-23T06:25:10.435Z,26.33
2023-01-23T06:27:39.012Z,25.17
2023-01-23T06:30:10.687Z,27.15
2023-01-23T06:32:43.162Z,23.50
2023-01-23T06:35:12.220Z,26.48
2023-01-23T06:37:42.943Z,26.55
2023-01-23T06:40:15.010Z,22.88
2023-01-23T06:42:54.754Z,25.70
2023-01-23T06:45:23.890Z,22.55
2023-01-23T06:47:53.590Z,25.95
2023-01-23T06:50:22.227Z,23.55
2023-01-23T06:52:51.031Z,25.27
2023-01-23T06:55:21.313Z,24.00
2023-01-23T06:57:49.607Z,23.15
2023-01-23T07:00:18.593Z,26.02
2023-01-23T07:02:47.016Z,26.63
2023-01-23T07:05:15.439Z,31.15
2023-01-23T07:07:47.120Z,24.73
2023-01-23T07:10:15.139Z,23.67
2023-01-23T07:12:43.222Z,23.83
2023-01-23T07:15:11.978Z,27.23
2023-01-23T07:17:42.149Z,28.10
2023-01-23T07:20:11.144Z,25.63
2023-01-23T07:22:46.625Z,29.98
2023-01-23T07:25:14.626Z,25.58
2023-01-23T07:27:42.634Z,27.92
2023-01-23T07:30:13.671Z,28.33
2023-01-23T07:32:41.644Z,34.30
2023-01-23T07:35:10.301Z,31.63
2023-01-23T07:37:38.748Z,28.73
2023-01-23T07:40:07.344Z,28.35
2023-01-23T07:42:35.807Z,31.23
2023-01-23T07:45:04.420Z,30.35
2023-01-23T07:47:32.609Z,26.17
2023-01-23T07:50:00.621Z,29.55
2023-01-23T07:52:28.975Z,26.67
2023-01-23T07:54:57.227Z,30.77
2023-01-23T07:57:25.210Z,27.90
2023-01-23T07:59:56.514Z,27.25
2023-01-23T08:02:24.428Z,26.27
2023-01-23T08:04:52.452Z,24.48
2023-01-23T08:07:20.721Z,25.35
2023-01-23T08:09:48.763Z,22.95
2023-01-23T08:12:16.709Z,24.55
2023-01-23T08:14:44.932Z,23.00
2023-01-23T08:17:12.901Z,24.13
2023-01-23T08:19:40.926Z,25.92
2023-01-23T08:22:09.028Z,22.48
2023-01-23T08:24:37.160Z,24.67
2023-01-23T08:27:05.456Z,24.25
2023-01-23T08:36:14.804Z,25.25
2023-01-23T08:38:42.939Z,28.90
2023-01-23T08:41:14.583Z,29.63
2023-01-23T08:46:11.782Z,30.13
2023-01-23T08:48:40.259Z,29.65
2023-01-23T08:51:12.994Z,29.88
2023-01-23T08:53:42.434Z,31.17
2023-01-23T08:56:19.382Z,30.63
2023-01-23T08:58:47.993Z,30.35
2023-01-23T09:01:23.261Z,32.50
2023-01-23T09:03:51.699Z,32.28
2023-01-23T09:06:22.962Z,30.30
2023-01-23T09:08:51.407Z,32.95
2023-01-23T09:11:20.143Z,31.50
2023-01-23T09:13:48.396Z,30.27
2023-01-23T09:16:17.459Z,35.05
2023-01-23T09:18:45.865Z,33.45
2023-01-23T09:21:17.737Z,32.78
2023-01-23T09:23:48.041Z,31.23
2023-01-23T09:26:19.708Z,32.50
2023-01-23T09:28:47.968Z,35.83
2023-01-23T09:31:16.803Z,36.63
2023-01-23T09:33:45.043Z,36.38
2023-01-23T09:36:14.403Z,36.65
2023-01-23T09:38:42.744Z,38.33
2023-01-23T09:41:23.840Z,39.35
2023-01-23T09:44:03.205Z,38.60
2023-01-23T09:46:54.367Z,41.38
2023-01-23T09:50:02.288Z,39.55
2023-01-23T09:52:37.033Z,38.42
2023-01-23T09:55:36.398Z,34.28
2023-01-23T09:58:05.936Z,37.95
2023-01-23T10:00:34.584Z,35.17
2023-01-23T10:03:11.752Z,36.88
2023-01-23T10:06:20.480Z,44.45
2023-01-23T10:09:09.505Z,41.00
2023-01-23T10:12:18.953Z,42.13
2023-01-23T10:15:40.498Z,34.53
2023-01-23T10:18:49.416Z,39.70
2023-01-23T10:22:22.249Z,35.97
2023-01-23T10:24:55.480Z,33.78
2023-01-23T10:27:46.189Z,36.42
2023-01-23T10:30:33.794Z,35.83
2023-01-23T10:33:29.354Z,41.20
2023-01-23T10:36:03.736Z,33.75
2023-01-23T10:38:59.911Z,38.88
2023-01-23T10:41:28.343Z,44.03
2023-01-23T10:43:57.719Z,40.90
2023-01-23T10:46:35.996Z,37.67
2023-01-23T10:49:04.641Z,36.78
2023-01-23T10:51:49.107Z,37.13
2023-01-23T10:54:33.084Z,40.60
2023-01-23T10:57:24.881Z,39.80
2023-01-23T11:00:18.047Z,29.80
2023-01-23T11:02:46.570Z,40.22
2023-01-23T11:05:51.623Z,38.72
2023-01-23T11:08:51.912Z,41.75
2023-01-23T11:11:25.927Z,39.95
2023-01-23T11:14:17.087Z,41.22
2023-01-23T11:16:45.154Z,43.77
2023-01-23T11:19:22.044Z,39.25
2023-01-23T11:21:55.279Z,40.78
2023-01-23T11:24:38.392Z,45.13
2023-01-23T11:27:13.597Z,39.75
2023-01-23T11:30:09.322Z,39.50
2023-01-23T11:33:15.082Z,38.63
2023-01-23T11:35:56.158Z,41.47
2023-01-23T11:38:32.375Z,36.80
2023-01-23T11:41:00.955Z,38.03
2023-01-23T11:43:29.096Z,35.88
2023-01-23T11:46:26.248Z,36.22
2023-01-23T11:49:20.659Z,35.30
2023-01-23T11:52:33.990Z,33.00
2023-01-23T11:55:45.701Z,31.35
2023-01-23T12:01:23.052Z,43.55
2023-01-23T12:04:05.540Z,36.28
2023-01-23T12:06:49.384Z,31.92
2023-01-23T12:09:21.561Z,34.40
2023-01-23T12:12:40.379Z,32.03
2023-01-23T12:16:05.804Z,35.88
2023-01-23T12:18:47.633Z,34.40
2023-01-23T12:21:48.893Z,30.60
2023-01-23T12:24:45.792Z,31.20
2023-01-23T12:27:44.827Z,34.25
2023-01-23T12:30:40.673Z,32.00
2023-01-23T12:33:33.557Z,30.15
2023-01-23T12:36:44.417Z,29.58
2023-01-23T12:40:08.603Z,31.67
2023-01-23T12:43:23.033Z,30.45
2023-01-23T12:46:06.079Z,29.98
2023-01-23T12:48:45.572Z,29.45
2023-01-23T12:51:27.439Z,29.90
2023-01-23T12:53:58.880Z,27.10
2023-01-23T12:56:33.973Z,33.67
2023-01-23T12:59:31.586Z,28.45
2023-01-23T13:02:35.835Z,29.50
2023-01-23T13:05:40.395Z,31.65
2023-01-23T13:08:38.408Z,27.15
2023-01-23T13:11:39.699Z,28.63
2023-01-23T13:14:32.744Z,25.98
2023-01-23T13:17:04.188Z,29.52
2023-01-23T13:19:59.487Z,31.60
2023-01-23T13:22:34.173Z,26.90
2023-01-23T13:25:10.533Z,26.08
2023-01-23T13:27:58.862Z,28.65
2023-01-23T13:30:27.329Z,29.40
2023-01-23T13:33:01.857Z,30.80
2023-01-23T13:35:45.122Z,26.13
2023-01-23T13:38:22.487Z,28.73
2023-01-23T13:41:06.281Z,27.52
2023-01-23T13:43:54.198Z,30.15
2023-01-23T13:46:31.187Z,28.20
2023-01-23T14:22:08.643Z,31.52
2023-01-23T14:24:53.431Z,35.55
2023-01-23T14:27:51.352Z,34.58
2023-01-23T14:30:30.420Z,36.33
2023-01-23T14:33:01.853Z,34.20
2023-01-23T14:35:33.455Z,37.90
2023-01-23T14:38:07.479Z,41.38
2023-01-23T14:40:50.224Z,36.30
2023-01-23T14:43:27.004Z,37.28
2023-01-23T14:46:11.896Z,34.38
2023-01-23T14:48:43.647Z,40.58
2023-01-23T14:53:56.528Z,38.97
2023-01-23T14:56:36.222Z,34.65
2023-01-23T14:59:16.427Z,38.33
2023-01-23T15:01:55.381Z,41.40
2023-01-23T15:04:28.082Z,34.53
2023-01-23T15:07:01.875Z,32.60
2023-01-23T15:09:43.440Z,40.70
2023-01-23T15:12:19.105Z,52.95
2023-01-23T15:14:53.106Z,40.17
2023-01-23T15:17:22.701Z,46.60
2023-01-23T15:19:56.699Z,43.17
2023-01-23T15:22:30.105Z,41.60
2023-01-23T15:25:38.452Z,46.15
2023-01-23T15:28:39.279Z,42.53
2023-01-23T15:31:28.599Z,45.53
2023-01-23T15:34:16.353Z,43.70
2023-01-23T15:37:09.573Z,40.65
2023-01-23T15:39:54.939Z,43.72
2023-01-23T15:42:35.075Z,47.13
2023-01-23T15:45:13.253Z,48.22
2023-01-23T15:47:42.138Z,43.65
2023-01-23T15:50:13.753Z,42.83
2023-01-23T15:52:54.002Z,44.85
2023-01-23T15:55:28.454Z,45.92
2023-01-23T15:57:57.347Z,41.13
2023-01-23T16:00:28.963Z,42.28
2023-01-23T16:02:59.601Z,46.58
2023-01-23T16:05:36.208Z,39.27
2023-01-23T16:08:06.976Z,38.00
2023-01-23T16:10:38.569Z,38.23
2023-01-23T16:13:08.406Z,40.45
2023-01-23T16:15:39.702Z,40.95
2023-01-23T16:18:07.975Z,40.42
2023-01-23T16:20:44.329Z,37.70
2023-01-23T16:23:24.970Z,36.47
2023-01-23T16:25:56.219Z,35.63
2023-01-23T16:28:29.593Z,38.80
2023-01-23T16:30:59.019Z,35.53
2023-01-23T16:33:27.257Z,37.58
2023-01-23T16:35:58.044Z,45.10
2023-01-23T16:38:29.358Z,39.43
2023-01-23T16:41:00.404Z,38.92
2023-01-23T16:43:28.913Z,44.55
2023-01-23T16:45:57.994Z,43.40
2023-01-23T16:48:28.576Z,49.88
2023-01-23T16:51:08.605Z,43.63
2023-01-23T16:53:42.618Z,41.17
2023-01-23T16:56:28.709Z,40.85
2023-01-23T16:58:56.835Z,43.95
2023-01-23T17:01:25.658Z,39.63
2023-01-23T17:03:59.695Z,45.35
2023-01-23T17:06:27.949Z,43.97
2023-01-23T17:08:56.752Z,47.58
2023-01-23T17:11:34.304Z,36.92
2023-01-23T17:14:30.118Z,43.63
2023-01-23T17:17:10.334Z,36.40
2023-01-23T17:19:41.834Z,39.30
2023-01-23T17:22:27.490Z,42.35
2023-01-23T17:24:58.901Z,35.80
2023-01-23T17:29:58.373Z,36.45
2023-01-23T17:32:37.675Z,38.22
2023-01-23T17:35:17.383Z,35.40
2023-01-23T17:37:45.623Z,40.60
2023-01-23T17:40:18.134Z,44.42
2023-01-23T17:42:46.560Z,38.28
2023-01-23T17:45:20.617Z,36.88
2023-01-23T17:47:55.532Z,41.55
2023-01-23T17:50:26.810Z,38.78
2023-01-23T17:52:58.579Z,42.15
2023-01-23T17:55:33.136Z,38.47
2023-01-23T17:58:01.766Z,37.35
2023-01-23T18:00:31.495Z,45.70
2023-01-23T18:03:02.599Z,40.97
2023-01-23T18:05:30.854Z,41.17
2023-01-23T18:07:59.064Z,41.42
2023-01-23T18:10:30.177Z,31.88
2023-01-23T18:13:50.930Z,40.75
2023-01-23T18:16:45.774Z,40.55
2023-01-23T18:19:22.952Z,40.80
2023-01-23T18:21:57.708Z,39.42
2023-01-23T18:24:32.671Z,43.38
2023-01-23T18:27:27.538Z,38.60
2023-01-23T18:30:56.441Z,39.88
2023-01-23T18:33:37.620Z,36.92
2023-01-23T18:36:23.657Z,38.65
2023-01-23T18:39:25.928Z,36.00
2023-01-23T18:42:35.806Z,33.08
2023-01-23T18:45:15.040Z,37.83
2023-01-23T18:47:44.972Z,36.53
2023-01-23T18:50:19.479Z,39.05
2023-01-23T18:53:21.443Z,38.13
2023-01-23T18:56:22.612Z,35.17
2023-01-23T18:59:41.306Z,39.60
2023-01-23T19:02:39.804Z,35.92
2023-01-23T19:05:14.354Z,41.78
2023-01-23T19:07:45.361Z,37.17
2023-01-23T19:10:19.527Z,46.85
2023-01-23T19:12:59.404Z,45.58
2023-01-23T19:15:34.077Z,41.53
2023-01-23T19:18:49.947Z,42.47
2023-01-23T19:21:26.786Z,47.35
2023-01-23T19:24:01.899Z,43.15
2023-01-23T19:26:40.326Z,45.00
2023-01-23T19:29:21.625Z,37.45
2023-01-23T19:34:35.913Z,45.47
2023-01-23T19:37:04.469Z,46.08
2023-01-23T19:39:32.797Z,45.53
2023-01-23T19:42:01.657Z,41.67
2023-01-23T19:44:32.897Z,44.83
2023-01-23T19:47:03.112Z,39.70
2023-01-23T19:49:31.555Z,40.30
2023-01-23T19:51:59.672Z,40.83
2023-01-23T19:54:27.817Z,39.83
2023-01-23T19:56:56.203Z,39.85
2023-01-23T19:59:26.278Z,38.33
2023-01-23T20:01:55.138Z,38.35
2023-01-23T20:04:24.799Z,40.83
2023-01-23T20:06:53.059Z,38.30
2023-01-23T20:09:22.244Z,34.67
2023-01-23T20:11:52.610Z,34.38
2023-01-23T20:14:22.289Z,32.90
2023-01-23T20:16:50.867Z,36.88
2023-01-23T20:19:23.949Z,37.05
2023-01-23T20:21:52.217Z,34.45
2023-01-23T20:24:21.519Z,33.83
2023-01-23T20:26:49.842Z,35.92
2023-01-23T20:29:18.137Z,33.72
2023-01-23T20:31:46.905Z,33.97
2023-01-23T20:34:15.249Z,35.38
2023-01-23T20:36:43.590Z,34.72
2023-01-23T20:39:14.140Z,34.70
2023-01-23T20:41:43.075Z,37.27
2023-01-23T20:44:11.774Z,37.08
2023-01-23T20:46:40.051Z,39.30
2023-01-23T20:49:13.106Z,39.17
2023-01-23T20:51:42.938Z,41.30
2023-01-23T20:54:11.362Z,35.00
2023-01-23T20:56:39.901Z,34.70
2023-01-23T20:59:24.214Z,34.70
2023-01-23T21:02:20.554Z,35.53
2023-01-23T21:04:54.854Z,35.93
2023-01-23T21:07:23.276Z,40.33
2023-01-23T21:09:52.885Z,34.15
2023-01-23T21:12:25.962Z,35.75
2023-01-23T21:14:55.435Z,34.88
2023-01-23T21:17:24.276Z,33.45
2023-01-23T21:19:53.871Z,34.58
2023-01-23T21:22:23.469Z,33.28
2023-01-23T21:24:55.813Z,37.65
2023-01-23T21:27:25.314Z,34.85
2023-01-23T21:29:55.525Z,35.92
2023-01-23T21:32:24.348Z,28.85
2023-01-23T21:34:54.559Z,32.65
2023-01-23T21:37:23.688Z,35.13
2023-01-23T21:39:52.942Z,36.22
2023-01-23T21:42:22.793Z,26.92
2023-01-23T21:44:56.284Z,31.70
2023-01-23T21:47:27.149Z,31.05
2023-01-23T21:52:32.709Z,31.05
2023-01-23T21:55:01.879Z,31.80
2023-01-23T21:57:31.826Z,35.70
2023-01-23T22:00:20.835Z,33.08
2023-01-23T22:02:53.615Z,36.78
2023-01-23T22:05:23.871Z,30.45
2023-01-23T22:07:52.493Z,33.47
2023-01-23T22:10:21.155Z,32.40
2023-01-23T22:12:51.030Z,29.90
2023-01-23T22:15:19.906Z,27.35
2023-01-23T22:17:49.189Z,29.30
2023-01-23T22:20:18.563Z,30.70
2023-01-23T22:22:47.108Z,31.10
2023-01-23T22:25:15.528Z,32.05
2023-01-23T22:27:44.319Z,33.53
2023-01-23T22:30:13.396Z,27.92
2023-01-23T22:32:41.636Z,33.70
2023-01-23T22:35:11.344Z,35.47
2023-01-23T22:37:41.927Z,32.05
2023-01-23T22:40:11.546Z,31.48
2023-01-23T22:42:40.349Z,28.70
2023-01-23T22:45:10.799Z,32.25
2023-01-23T22:47:39.738Z,31.58
2023-01-23T22:50:09.909Z,31.88
2023-01-23T22:52:38.653Z,30.13
2023-01-23T22:55:07.933Z,28.92
2023-01-23T22:57:37.212Z,31.42
2023-01-23T23:00:16.643Z,29.55
2023-01-23T23:02:44.768Z,28.65
2023-01-23T23:05:13.214Z,30.67
2023-01-23T23:07:41.629Z,29.40
2023-01-23T23:10:11.910Z,29.08
2023-01-23T23:12:40.216Z,29.15
2023-01-23T23:15:09.252Z,29.48
2023-01-23T23:17:37.378Z,28.98
2023-01-23T23:20:07.107Z,29.08
2023-01-23T23:22:35.350Z,27.85
2023-01-23T23:25:03.668Z,27.65
2023-01-23T23:27:33.330Z,29.52
2023-01-23T23:30:02.286Z,31.85
2023-01-23T23:32:31.526Z,27.45
2023-01-23T23:34:59.731Z,25.50
2023-01-23T23:37:28.552Z,27.58
2023-01-23T23:39:57.324Z,25.45
2023-01-23T23:42:25.670Z,22.85
2023-01-23T23:44:54.148Z,23.98
2023-01-23T23:47:22.712Z,25.17
2023-01-23T23:49:50.793Z,25.83
2023-01-23T23:52:19.727Z,27.67
2023-01-23T23:54:48.026Z,28.58
2023-01-23T23:57:15.972Z,25.30
2023-01-23T23:59:44.266Z,23.77
